Time;durP1;ratioP1;P1;durP2;ratioP2;P2;SDS_P1;SDS_P2;PMS_P1;PMS_P2;Temp;Humidity;BMP_temperature;BMP_pressure;BME280_temperature;BME280_humidity;BME280_pressure;Samples;Min_cycle;Max_cycle;Signal;HPM_P1;HPM_P2
2022/05/26 00:01:52;;;;;;;6.50;2.30;;;;;;;14.06;89.33;101548.53;5028150;28;20037;-73
2022/05/26 00:04:18;;;;;;;3.65;2.20;;;;;;;14.06;89.40;101548.53;5026840;28;20479;-73
2022/05/26 00:06:43;;;;;;;3.85;2.25;;;;;;;14.04;89.29;101546.03;5013556;28;20041;-73
2022/05/26 00:09:09;;;;;;;5.38;2.63;;;;;;;14.04;89.65;101539.75;5013906;28;20042;-73
2022/05/26 00:11:37;;;;;;;6.15;2.50;;;;;;;14.04;90.17;101545.19;5031560;28;20037;-73
2022/05/26 00:14:07;;;;;;;5.47;2.50;;;;;;;14.03;89.66;101552.53;5015621;28;20091;-73
2022/05/26 00:16:44;;;;;;;6.63;2.67;;;;;;;14.05;89.91;101552.28;5031172;28;20029;-73
2022/05/26 00:19:10;;;;;;;5.05;2.80;;;;;;;14.02;90.08;101544.59;5026567;28;20272;-73
2022/05/26 00:21:36;;;;;;;5.88;2.63;;;;;;;13.96;90.74;101544.44;5032927;28;20041;-73
2022/05/26 00:24:02;;;;;;;5.75;2.88;;;;;;;14.00;90.82;101551.09;5025937;28;20392;-72
2022/05/26 00:26:28;;;;;;;6.38;2.72;;;;;;;13.98;90.84;101550.50;5013036;28;20034;-73
2022/05/26 00:28:53;;;;;;;6.05;2.90;;;;;;;13.98;90.75;101557.84;5029977;28;20038;-73
2022/05/26 00:31:19;;;;;;;7.13;2.88;;;;;;;13.99;90.88;101556.75;5031512;28;20030;-72
2022/05/26 00:33:45;;;;;;;8.52;3.30;;;;;;;14.00;90.56;101559.25;5024658;28;20044;-73
2022/05/26 00:36:13;;;;;;;8.95;2.80;;;;;;;13.98;91.19;101569.56;5028377;28;20025;-73
2022/05/26 00:38:39;;;;;;;8.32;3.22;;;;;;;14.00;91.22;101561.16;5029885;28;20029;-73
2022/05/26 00:41:11;;;;;;;8.95;2.80;;;;;;;13.99;91.14;101562.19;5032479;28;20116;-72
2022/05/26 00:43:42;;;;;;;7.93;3.35;;;;;;;13.92;91.56;101562.31;5044773;28;20487;-73
2022/05/26 00:46:17;;;;;;;8.95;3.22;;;;;;;13.99;91.41;101570.38;5052449;28;20115;-73
2022/05/26 00:48:47;;;;;;;7.65;3.17;;;;;;;14.00;91.40;101558.44;5034865;28;20059;-73
2022/05/26 00:51:15;;;;;;;8.93;3.22;;;;;;;13.99;91.44;101559.47;5052049;28;20529;-73
2022/05/26 00:53:46;;;;;;;10.82;3.45;;;;;;;13.97;91.44;101567.88;5032612;28;20029;-73
2022/05/26 00:56:19;;;;;;;12.98;3.15;;;;;;;13.94;91.67;101562.91;5031998;28;20029;-73
2022/05/26 00:58:50;;;;;;;7.35;3.20;;;;;;;13.96;92.07;101563.50;5027474;28;20051;-73
2022/05/26 01:01:17;;;;;;;11.10;3.70;;;;;;;14.00;91.32;101561.97;5029043;28;20037;-73
2022/05/26 01:03:47;;;;;;;12.23;3.50;;;;;;;13.96;91.86;101560.75;5030776;28;20025;-73
2022/05/26 01:06:26;;;;;;;10.45;3.80;;;;;;;14.00;91.48;101561.97;5012805;28;20022;-72
2022/05/26 01:08:55;;;;;;;11.60;3.85;;;;;;;14.05;91.53;101565.91;5012023;28;20050;-73
2022/05/26 01:11:23;;;;;;;9.90;3.53;;;;;;;13.98;91.78;101569.56;5012221;28;20479;-72
2022/05/26 01:13:54;;;;;;;10.05;3.83;;;;;;;13.97;92.11;101576.03;5012303;28;20481;-73
2022/05/26 01:16:57;;;;;;;11.73;4.07;;;;;;;14.02;91.41;101569.09;5012365;28;20034;-74
2022/05/26 01:19:45;;;;;;;10.93;3.80;;;;;;;14.02;91.37;101567.19;5030248;28;20087;-73
2022/05/26 01:22:48;;;;;;;13.00;3.90;;;;;;;14.06;91.55;101573.00;5031415;28;20029;-73
2022/05/26 01:25:23;;;;;;;12.30;3.95;;;;;;;13.98;91.96;101572.28;5030857;28;20389;-74
2022/05/26 01:28:01;;;;;;;8.80;3.53;;;;;;;14.00;91.98;101570.13;5031565;28;20036;-74
2022/05/26 01:30:47;;;;;;;9.55;3.90;;;;;;;14.00;92.16;101577.47;5022639;28;20033;-73
2022/05/26 01:33:24;;;;;;;13.70;4.93;;;;;;;14.02;92.29;101579.97;5032016;28;20029;-73
2022/05/26 01:36:02;;;;;;;10.05;4.50;;;;;;;14.05;91.77;101568.63;5031950;28;20076;-73
2022/05/26 01:38:49;;;;;;;11.40;4.32;;;;;;;14.03;91.83;101576.19;5017741;28;20041;-72
2022/05/26 01:41:26;;;;;;;12.15;4.90;;;;;;;14.04;92.17;101583.28;5011702;28;20033;-72
2022/05/26 01:44:29;;;;;;;14.10;5.30;;;;;;;14.02;92.06;101579.97;5026621;28;20034;-72
2022/05/26 01:47:00;;;;;;;17.50;5.13;;;;;;;14.02;92.50;101588.13;5027945;28;20107;-72
2022/05/26 01:49:53;;;;;;;16.60;5.30;;;;;;;14.05;92.33;101595.84;5030780;28;20029;-72
2022/05/26 01:52:27;;;;;;;12.00;5.80;;;;;;;14.03;92.41;101589.81;5011049;28;20041;-71
2022/05/26 01:55:02;;;;;;;16.85;6.05;;;;;;;13.95;92.73;101583.63;5011878;28;20026;-71
2022/05/26 01:57:52;;;;;;;13.00;5.07;;;;;;;14.01;92.59;101595.47;4994609;28;20029;-73
2022/05/26 02:00:19;;;;;;;12.23;5.82;;;;;;;13.96;92.98;101593.41;4994480;28;20038;-71
2022/05/26 02:03:07;;;;;;;15.85;5.60;;;;;;;14.02;92.28;101596.31;5021402;28;20072;-73
2022/05/26 02:05:43;;;;;;;14.57;6.50;;;;;;;13.99;92.78;101598.44;5012176;28;20095;-73
2022/05/26 02:08:15;;;;;;;13.93;6.15;;;;;;;13.98;93.04;101602.19;5010418;28;20463;-72
2022/05/26 02:10:52;;;;;;;13.25;6.30;;;;;;;13.98;92.96;101604.91;5012006;28;20042;-73
2022/05/26 02:13:27;;;;;;;14.25;7.50;;;;;;;13.97;93.20;101605.97;5011263;28;20025;-73
2022/05/26 02:16:03;;;;;;;17.73;7.78;;;;;;;14.07;92.65;101610.03;5032315;28;20033;-73
2022/05/26 02:18:43;;;;;;;15.15;7.32;;;;;;;13.98;93.04;101607.66;5012167;28;20038;-73
2022/05/26 02:21:20;;;;;;;17.02;7.43;;;;;;;14.01;92.88;101611.81;5011206;28;20359;-73
2022/05/26 02:23:50;;;;;;;16.10;7.47;;;;;;;13.98;92.96;101625.88;5013186;28;20379;-73
2022/05/26 02:26:15;;;;;;;18.58;7.32;;;;;;;13.96;92.75;101609.75;5015561;28;20104;-73
2022/05/26 02:31:28;;;;;;;17.45;7.47;;;;;;;13.98;93.03;101623.97;5032792;28;20092;-73
2022/05/26 02:33:57;;;;;;;16.80;7.32;;;;;;;13.97;93.18;101627.75;5029143;28;20421;-73
2022/05/26 02:36:24;;;;;;;18.55;6.93;;;;;;;14.04;92.88;101622.22;5016484;28;20041;-72
2022/05/26 02:38:49;;;;;;;17.45;8.15;;;;;;;13.98;93.14;101629.41;5025053;28;20041;-72
2022/05/26 02:41:14;;;;;;;17.50;7.50;;;;;;;13.95;93.46;101635.31;5035071;28;20485;-72
2022/05/26 02:43:40;;;;;;;19.25;7.65;;;;;;;13.94;93.79;101632.81;5034745;28;20079;-72
2022/05/26 02:46:28;;;;;;;20.40;7.57;;;;;;;13.91;93.83;101620.50;5035063;28;20033;-72
2022/05/26 02:49:12;;;;;;;16.67;7.43;;;;;;;13.94;93.53;101638.25;5031419;28;20413;-72
2022/05/26 02:51:55;;;;;;;19.92;7.50;;;;;;;13.90;93.76;101632.44;5034374;28;20530;-72
2022/05/26 02:54:32;;;;;;;14.15;7.55;;;;;;;13.89;93.84;101633.50;5031143;28;20471;-72
2022/05/26 02:57:24;;;;;;;19.25;7.60;;;;;;;13.98;93.27;101628.59;5027341;28;20393;-72
2022/05/26 03:00:07;;;;;;;24.73;8.52;;;;;;;13.94;93.37;101643.72;5030521;28;20041;-72
2022/05/26 03:02:39;;;;;;;21.63;7.50;;;;;;;13.91;93.52;101638.72;5018833;28;20092;-73
2022/05/26 03:05:43;;;;;;;18.35;8.50;;;;;;;14.01;93.38;101639.03;5014241;28;20041;-72
2022/05/26 03:08:12;;;;;;;21.55;9.07;;;;;;;13.89;93.87;101644.38;4996705;28;20042;-72
2022/05/26 03:10:37;;;;;;;21.02;8.77;;;;;;;13.89;93.59;101635.38;5017518;28;20057;-72
2022/05/26 03:13:03;;;;;;;21.50;8.77;;;;;;;13.85;94.12;101642.34;5014161;28;20045;-73
2022/05/26 03:15:30;;;;;;;21.30;8.77;;;;;;;13.85;93.79;101636.91;5010322;28;20031;-73
2022/05/26 03:17:58;;;;;;;21.02;9.32;;;;;;;13.83;93.90;101642.59;4994915;28;20096;-73
2022/05/26 03:20:23;;;;;;;18.58;8.25;;;;;;;13.81;93.97;101645.53;4994874;28;20034;-73
2022/05/26 03:22:48;;;;;;;22.23;9.25;;;;;;;13.81;94.07;101639.25;4993258;28;20037;-73
2022/05/26 03:25:13;;;;;;;20.52;8.68;;;;;;;13.82;94.61;101647.16;4977088;28;20077;-73
2022/05/26 03:27:39;;;;;;;20.05;7.78;;;;;;;13.86;93.81;101644.00;4994824;28;20034;-72
2022/05/26 03:30:05;;;;;;;23.85;8.63;;;;;;;13.77;94.29;101643.50;4995303;28;20037;-73
2022/05/26 03:32:31;;;;;;;24.65;8.55;;;;;;;13.80;94.68;101648.47;4994384;28;20035;-73
2022/05/26 03:43:09;;;;;;;21.98;8.45;;;;;;;13.76;94.75;101669.84;5013589;28;20044;-72
2022/05/26 03:45:35;;;;;;;23.20;7.72;;;;;;;13.76;94.83;101666.31;5014295;28;20033;-72
2022/05/26 03:48:02;;;;;;;21.92;8.07;;;;;;;13.70;94.96;101661.78;5032555;28;20128;-72
2022/05/26 03:50:27;;;;;;;25.58;8.48;;;;;;;13.73;94.64;101666.75;5016012;28;20039;-73
2022/05/26 03:52:53;;;;;;;23.90;8.20;;;;;;;13.72;94.80;101673.25;5033359;28;20112;-73
2022/05/26 03:55:20;;;;;;;22.90;7.78;;;;;;;13.73;94.59;101673.03;5013298;28;20120;-73
2022/05/26 03:57:45;;;;;;;24.75;7.85;;;;;;;13.70;95.03;101680.81;5013856;28;20030;-73
2022/05/26 04:00:13;;;;;;;22.20;8.13;;;;;;;13.73;94.43;101683.06;4998798;28;20400;-73
2022/05/26 04:02:39;;;;;;;27.58;8.10;;;;;;;13.67;94.88;101683.97;5007331;28;20181;-73
2022/05/26 04:05:05;;;;;;;25.88;8.43;;;;;;;13.68;94.75;101693.78;5012972;28;20046;-74
2022/05/26 04:07:30;;;;;;;22.10;7.70;;;;;;;13.61;95.03;101689.25;4998274;28;20034;-73
2022/05/26 04:09:56;;;;;;;22.63;7.70;;;;;;;13.57;95.34;101688.06;5002949;28;20133;-74
2022/05/26 04:12:21;;;;;;;23.38;7.93;;;;;;;13.56;95.03;101696.44;5012301;28;20463;-72
2022/05/26 04:14:47;;;;;;;26.02;7.95;;;;;;;13.55;95.23;101694.75;5013180;28;20055;-74
2022/05/26 04:17:12;;;;;;;25.88;8.00;;;;;;;13.53;95.59;101691.44;5012975;28;20096;-72
2022/05/26 04:19:41;;;;;;;23.88;7.72;;;;;;;13.55;95.52;101692.03;5024224;28;20037;-72
2022/05/26 04:22:15;;;;;;;27.15;7.63;;;;;;;13.54;95.43;101698.53;5032864;28;20036;-72
2022/05/26 04:24:41;;;;;;;20.58;6.90;;;;;;;13.49;95.80;101701.91;5032789;28;20108;-72
2022/05/26 04:27:07;;;;;;;23.85;7.22;;;;;;;13.50;95.70;101698.16;5032704;28;20109;-72
2022/05/26 04:29:33;;;;;;;24.13;6.90;;;;;;;13.49;95.80;101704.63;5020856;28;20152;-72
2022/05/26 04:31:59;;;;;;;26.63;6.90;;;;;;;13.52;96.06;101704.19;5013253;28;20077;-72
2022/05/26 04:34:25;;;;;;;23.13;6.72;;;;;;;13.51;95.66;101707.97;5012947;28;20122;-72
2022/05/26 04:36:50;;;;;;;30.25;7.70;;;;;;;13.51;95.59;101705.25;5028306;28;20394;-73
2022/05/26 04:39:16;;;;;;;23.73;6.57;;;;;;;13.54;95.93;101709.41;5031434;28;20033;-73
2022/05/26 04:41:43;;;;;;;23.48;7.40;;;;;;;13.50;96.11;101709.03;5018301;28;20053;-72
2022/05/26 04:44:10;;;;;;;28.05;7.35;;;;;;;13.50;96.12;101711.75;5028732;28;20037;-72
2022/05/26 04:46:36;;;;;;;25.73;7.38;;;;;;;13.54;95.50;101710.25;5031774;28;20037;-72
2022/05/26 04:49:03;;;;;;;27.10;7.03;;;;;;;13.54;95.81;101712.13;5032201;28;20091;-72
2022/05/26 04:51:28;;;;;;;24.05;7.13;;;;;;;13.55;95.72;101716.53;5032390;28;20026;-72
2022/05/26 04:53:54;;;;;;;26.38;6.93;;;;;;;13.54;95.79;101723.84;5032718;28;20438;-72
2022/05/26 04:56:19;;;;;;;23.88;7.25;;;;;;;13.56;95.25;101720.91;5032136;28;20457;-72
2022/05/26 04:58:46;;;;;;;24.02;7.78;;;;;;;13.50;96.11;101728.06;5031307;28;20112;-72
2022/05/26 05:01:15;;;;;;;27.38;7.43;;;;;;;13.55;95.68;101730.94;5023883;28;20426;-72
2022/05/26 05:03:41;;;;;;;27.98;6.78;;;;;;;13.51;96.29;101735.16;5031279;28;20061;-72
2022/05/26 05:06:07;;;;;;;24.13;6.45;;;;;;;13.59;95.55;101739.50;5032099;28;20057;-72
2022/05/26 05:08:32;;;;;;;25.50;7.35;;;;;;;13.56;96.01;101743.50;5032057;28;20057;-72
2022/05/26 05:10:58;;;;;;;24.17;6.75;;;;;;;13.56;96.05;101753.53;5031853;28;20068;-72
2022/05/26 05:13:23;;;;;;;26.27;7.22;;;;;;;13.61;95.90;101748.25;5032249;28;20040;-72
2022/05/26 05:15:55;;;;;;;26.95;7.47;;;;;;;13.60;95.81;101760.19;5032103;28;20035;-72
2022/05/26 05:18:20;;;;;;;23.40;7.55;;;;;;;13.66;95.94;101756.56;5032108;28;20072;-73
2022/05/26 05:20:46;;;;;;;26.10;7.22;;;;;;;13.63;95.91;101754.28;5025470;28;20089;-72
2022/05/26 05:23:13;;;;;;;24.20;7.05;;;;;;;13.64;95.82;101754.06;5011124;28;20026;-73
2022/05/26 05:25:42;;;;;;;30.50;7.55;;;;;;;13.65;96.31;101757.63;5012549;28;20048;-72
2022/05/26 05:28:11;;;;;;;27.02;7.32;;;;;;;13.70;95.73;101765.13;5012269;28;20030;-72
2022/05/26 05:30:48;;;;;;;24.65;7.28;;;;;;;13.70;96.39;101771.38;5012233;28;20470;-72
2022/05/26 05:33:28;;;;;;;24.42;7.18;;;;;;;13.73;95.58;101773.66;5023807;28;20052;-73
2022/05/26 05:36:01;;;;;;;31.13;7.13;;;;;;;13.75;95.25;101779.72;5030990;28;20029;-73
2022/05/26 05:38:27;;;;;;;25.73;7.25;;;;;;;13.78;95.61;101781.16;5029667;28;20030;-73
2022/05/26 05:40:52;;;;;;;31.20;8.52;;;;;;;13.82;95.05;101790.53;5021177;28;20410;-72
2022/05/26 05:43:17;;;;;;;25.92;7.47;;;;;;;13.77;96.04;101779.50;5012229;28;20041;-73
2022/05/26 05:45:43;;;;;;;28.02;7.70;;;;;;;13.79;95.65;101778.19;5012425;28;20030;-72
2022/05/26 05:48:08;;;;;;;26.77;7.97;;;;;;;13.84;95.15;101785.69;5011810;28;20503;-72
2022/05/26 05:50:34;;;;;;;23.65;7.50;;;;;;;13.86;95.72;101793.63;5010877;28;20160;-73
2022/05/26 05:52:59;;;;;;;26.00;7.38;;;;;;;13.91;96.08;101789.19;5012366;28;20038;-72
2022/05/26 05:55:26;;;;;;;25.48;8.23;;;;;;;13.93;95.31;101789.78;5012132;28;20401;-73
2022/05/26 05:57:51;;;;;;;26.75;7.75;;;;;;;13.94;94.83;101787.91;5015235;28;20169;-72
2022/05/26 06:00:17;;;;;;;24.85;7.47;;;;;;;13.94;95.23;101791.47;5024649;28;20112;-73
2022/05/26 06:02:42;;;;;;;25.45;7.78;;;;;;;14.00;95.01;101793.28;5029284;28;20046;-73
2022/05/26 06:05:08;;;;;;;25.50;7.18;;;;;;;14.03;95.50;101796.63;5032567;28;20048;-73
2022/05/26 06:07:34;;;;;;;23.38;7.45;;;;;;;14.06;94.21;101799.72;5026109;28;20044;-73
2022/05/26 06:10:00;;;;;;;29.08;7.07;;;;;;;14.12;94.32;101803.44;5015440;28;20053;-73
2022/05/26 06:12:25;;;;;;;25.45;7.88;;;;;;;14.14;94.01;101807.56;5021489;28;20092;-73
2022/05/26 06:14:51;;;;;;;23.00;8.20;;;;;;;14.16;94.40;101801.91;5017763;28;20040;-73
2022/05/26 06:17:16;;;;;;;24.92;8.45;;;;;;;14.14;94.07;101810.31;5034651;28;20033;-73
2022/05/26 06:19:42;;;;;;;27.58;8.57;;;;;;;14.20;94.03;101819.47;5034360;28;20035;-73
2022/05/26 06:22:20;;;;;;;24.02;8.20;;;;;;;14.18;93.51;101807.97;5034458;28;20532;-74
2022/05/26 06:24:46;;;;;;;23.48;7.80;;;;;;;14.20;93.70;101816.75;5031853;28;20034;-73
2022/05/26 06:29:59;;;;;;;27.98;9.63;;;;;;;14.22;94.12;101825.53;5015464;28;20044;-73
2022/05/26 06:38:01;;;;;;;27.60;9.63;;;;;;;14.54;91.86;101831.66;5015398;28;20049;-73
2022/05/26 06:40:35;;;;;;;29.55;10.35;;;;;;;14.55;91.34;101832.47;5013009;28;20030;-73
2022/05/26 06:43:08;;;;;;;27.60;9.90;;;;;;;14.52;91.64;101831.06;5013657;28;20390;-73
2022/05/26 06:45:39;;;;;;;27.85;10.20;;;;;;;14.56;91.54;101833.34;5022323;28;20034;-73
2022/05/26 06:48:12;;;;;;;21.52;10.38;;;;;;;14.59;90.97;101841.88;5031689;28;20037;-73
2022/05/26 06:50:40;;;;;;;22.90;10.18;;;;;;;14.59;91.11;101841.88;5033015;28;20515;-73
2022/05/26 06:53:06;;;;;;;25.70;9.57;;;;;;;14.59;89.74;101841.03;5034508;28;20155;-73
2022/05/26 06:55:31;;;;;;;31.52;10.60;;;;;;;14.67;90.53;101848.94;5034336;28;20108;-73
2022/05/26 06:57:57;;;;;;;25.02;9.40;;;;;;;14.64;90.26;101846.66;5020232;28;20034;-73
2022/05/26 07:00:22;;;;;;;28.27;11.07;;;;;;;14.67;90.77;101848.94;5013893;28;20445;-73
2022/05/26 07:02:48;;;;;;;27.38;10.88;;;;;;;14.68;90.00;101851.44;5020736;28;20061;-73
2022/05/26 07:05:13;;;;;;;26.98;10.40;;;;;;;14.73;89.42;101855.38;5022403;28;20346;-73
2022/05/26 07:07:40;;;;;;;26.70;9.68;;;;;;;14.68;88.94;101859.59;5020916;28;20053;-72
2022/05/26 07:10:07;;;;;;;21.83;9.20;;;;;;;14.69;88.35;101861.28;5012789;28;20100;-73
2022/05/26 07:12:32;;;;;;;21.40;8.18;;;;;;;14.74;85.92;101866.03;4996528;28;20042;-73
2022/05/26 07:14:58;;;;;;;22.50;9.00;;;;;;;14.79;87.23;101873.53;5013152;28;20049;-72
2022/05/26 07:17:23;;;;;;;21.45;8.68;;;;;;;14.88;87.67;101869.41;5014361;28;20042;-73
2022/05/26 07:19:48;;;;;;;22.42;8.65;;;;;;;14.94;87.85;101871.22;5014810;28;20470;-73
2022/05/26 07:22:14;;;;;;;18.23;8.48;;;;;;;14.98;87.82;101872.44;5012862;28;20037;-74
2022/05/26 07:24:41;;;;;;;19.33;8.65;;;;;;;15.02;86.02;101872.81;5014450;28;20475;-73
2022/05/26 07:27:07;;;;;;;18.13;8.15;;;;;;;15.04;85.34;101876.97;5025249;28;20048;-73
2022/05/26 07:29:32;;;;;;;23.77;9.57;;;;;;;15.01;84.61;101871.16;5033946;28;20029;-73
2022/05/26 07:31:59;;;;;;;24.88;8.90;;;;;;;15.12;84.71;101883.19;5021773;28;20037;-73
2022/05/26 07:34:25;;;;;;;19.20;8.63;;;;;;;15.16;85.85;101884.38;5014013;28;20084;-73
2022/05/26 07:42:22;;;;;;;16.58;7.60;;;;;;;15.13;82.72;101893.03;5028134;28;20134;-78
2022/05/26 07:44:49;;;;;;;18.98;7.78;;;;;;;15.19;82.83;101901.09;5032340;28;20378;-76
2022/05/26 07:47:16;;;;;;;20.83;8.55;;;;;;;15.28;83.04;101898.91;5033074;28;20029;-78
2022/05/26 07:49:44;;;;;;;15.85;8.35;;;;;;;15.31;82.27;101895.72;5033624;28;20060;-78
2022/05/26 07:52:10;;;;;;;20.50;9.07;;;;;;;15.31;82.75;101901.16;5033339;28;20044;-77
2022/05/26 07:54:36;;;;;;;26.35;8.60;;;;;;;15.30;82.19;101896.75;5032814;28;20025;-76
2022/05/26 07:57:03;;;;;;;19.27;7.80;;;;;;;15.31;81.65;101901.16;5033484;28;20047;-75
2022/05/26 07:59:29;;;;;;;19.33;7.88;;;;;;;15.32;81.02;101905.53;5008834;28;20041;-77
2022/05/26 08:01:55;;;;;;;14.55;7.20;;;;;;;15.31;82.21;101906.63;5019934;28;20045;-79
2022/05/26 08:04:20;;;;;;;15.95;8.55;;;;;;;15.34;81.14;101903.44;5031770;28;20026;-77
2022/05/26 08:06:47;;;;;;;19.23;8.35;;;;;;;15.40;83.39;101913.41;5033206;28;20458;-75
2022/05/26 08:09:17;;;;;;;15.30;8.25;;;;;;;15.51;80.21;101908.22;5032587;28;20505;-80
2022/05/26 08:11:42;;;;;;;21.48;8.25;;;;;;;15.62;80.86;101907.41;5032994;28;20540;-72
2022/05/26 08:14:07;;;;;;;19.23;8.55;;;;;;;15.70;82.84;101915.28;5033298;28;20104;-75
2022/05/26 08:16:34;;;;;;;21.60;8.18;;;;;;;15.79;79.78;101914.97;5013677;28;20124;-76
2022/05/26 08:19:01;;;;;;;13.13;6.95;;;;;;;15.78;78.50;101914.16;5032418;28;20033;-77
2022/05/26 08:21:27;;;;;;;14.48;7.20;;;;;;;15.87;79.27;101909.19;5032338;28;20083;-75
2022/05/26 08:23:53;;;;;;;16.17;7.50;;;;;;;15.92;78.56;101909.31;5033001;28;20025;-78
2022/05/26 08:26:19;;;;;;;15.23;7.45;;;;;;;15.97;78.58;101909.41;5014976;28;20030;-78
2022/05/26 08:28:44;;;;;;;16.20;6.22;;;;;;;16.09;77.48;101909.44;5014811;28;20030;-81
2022/05/26 08:31:10;;;;;;;17.42;5.95;;;;;;;16.21;76.36;101917.63;5015363;28;20084;-79
2022/05/26 08:33:36;;;;;;;14.02;6.63;;;;;;;16.17;76.49;101922.75;5029920;28;20056;-79
2022/05/26 08:36:06;;;;;;;17.83;6.38;;;;;;;16.20;76.81;101921.44;5032586;28;20065;-77
2022/05/26 08:38:32;;;;;;;15.27;6.40;;;;;;;16.23;75.84;101918.22;5031255;28;20079;-77
2022/05/26 08:40:58;;;;;;;9.68;5.35;;;;;;;16.26;73.96;101925.94;5032608;28;20041;-77
2022/05/26 08:43:29;;;;;;;14.60;6.60;;;;;;;16.31;74.19;101934.28;5032475;28;20371;-80
2022/05/26 08:45:55;;;;;;;15.15;7.60;;;;;;;16.34;73.07;101928.34;5032819;28;20025;-80
2022/05/26 08:48:42;;;;;;;16.02;7.75;;;;;;;16.32;75.01;101927.75;5031988;28;20044;-78
2022/05/26 08:51:11;;;;;;;16.58;8.82;;;;;;;16.38;75.03;101929.53;5022908;28;20033;-76
2022/05/26 08:53:39;;;;;;;20.15;12.60;;;;;;;16.52;76.31;101932.03;5032148;28;20038;-77
2022/05/26 08:56:07;;;;;;;25.40;14.63;;;;;;;16.54;75.13;101927.16;5049161;28;20029;-76
2022/05/26 08:58:39;;;;;;;17.17;11.70;;;;;;;16.53;75.45;101941.88;5043139;28;20091;-74
2022/05/26 09:01:05;;;;;;;;;;;;;;;16.61;75.51;101942.34;5029812;28;20044;-73
2022/05/26 09:03:34;;;;;;;17.23;9.35;;;;;;;16.58;73.08;101950.19;5031966;28;20004;-74
2022/05/26 09:06:08;;;;;;;15.90;8.88;;;;;;;16.71;73.15;101943.63;5016049;28;20041;-73
2022/05/26 09:14:27;;;;;;;17.75;8.68;;;;;;;16.88;69.19;101949.22;5012450;28;20046;-74
2022/05/26 09:16:57;;;;;;;13.82;7.65;;;;;;;16.77;69.33;101946.25;5012596;28;20030;-75
2022/05/26 09:19:23;;;;;;;17.88;10.30;;;;;;;16.75;69.41;101942.09;5014318;28;20030;-75
2022/05/26 09:21:50;;;;;;;13.75;8.52;;;;;;;16.71;69.56;101952.66;5012356;28;20032;-75
2022/05/26 09:24:29;;;;;;;13.35;8.77;;;;;;;16.65;68.27;101954.47;5012391;28;20112;-75
2022/05/26 09:27:06;;;;;;;15.30;8.70;;;;;;;16.63;69.20;101953.84;5012361;28;20037;-75
2022/05/26 09:29:37;;;;;;;16.67;8.85;;;;;;;16.63;69.29;101958.50;5012223;28;20037;-82
2022/05/26 09:32:04;;;;;;;18.30;11.50;;;;;;;16.63;69.32;101966.69;5015029;28;20061;-79
2022/05/26 09:34:34;;;;;;;19.27;11.30;;;;;;;16.69;70.01;101968.47;4999376;28;20095;-78
2022/05/26 09:37:03;;;;;;;17.08;11.52;;;;;;;16.75;69.89;101972.97;5034997;28;20034;-74
2022/05/26 09:39:42;;;;;;;18.48;13.10;;;;;;;16.87;70.78;101974.91;5035837;28;20029;-72
2022/05/26 09:42:27;;;;;;;17.20;12.00;;;;;;;16.89;70.53;101970.84;5034946;28;20454;-76
2022/05/26 09:45:02;;;;;;;17.88;10.75;;;;;;;16.88;68.50;101973.81;5035889;28;20117;-76
2022/05/26 09:47:37;;;;;;;15.30;8.85;;;;;;;16.91;66.75;101976.94;5034415;28;20101;-77
2022/05/26 09:50:07;;;;;;;13.68;8.73;;;;;;;16.90;66.13;101980.72;5034791;28;20025;-76
2022/05/26 09:52:44;;;;;;;13.30;8.95;;;;;;;17.02;66.70;101972.50;5035522;28;20048;-76
2022/05/26 09:55:24;;;;;;;17.25;9.85;;;;;;;17.00;68.10;101982.88;5034673;28;20596;-77
2022/05/26 09:57:49;;;;;;;16.65;11.00;;;;;;;16.94;67.57;101970.97;5033950;28;20040;-77
2022/05/26 10:00:16;;;;;;;18.60;12.38;;;;;;;16.92;67.84;101981.31;5035525;28;20041;-77
2022/05/26 10:02:41;;;;;;;15.73;10.55;;;;;;;17.05;66.88;101980.22;5032086;28;20051;-75
2022/05/26 10:05:28;;;;;;;20.92;9.90;;;;;;;17.14;67.02;101978.78;5035391;28;20029;-75
2022/05/26 10:08:08;;;;;;;16.10;9.57;;;;;;;17.31;65.84;101978.03;5039053;28;20028;-76
2022/05/26 10:10:46;;;;;;;13.82;7.75;;;;;;;17.34;64.88;101986.56;5034814;28;20058;-76
2022/05/26 10:13:35;;;;;;;14.88;8.68;;;;;;;17.44;64.71;101993.34;5017925;28;20041;-75
2022/05/26 10:16:30;;;;;;;15.15;7.97;;;;;;;17.51;63.48;101996.75;5034023;28;20068;-75
2022/05/26 10:19:16;;;;;;;11.30;6.75;;;;;;;17.61;61.30;101985.19;5035434;28;20045;-76
2022/05/26 10:22:08;;;;;;;14.15;8.30;;;;;;;17.58;62.16;101993.88;5035278;28;20534;-76
2022/05/26 10:24:50;;;;;;;13.70;8.30;;;;;;;17.46;63.74;101989.25;5017626;28;20044;-76
2022/05/26 10:27:21;;;;;;;18.50;10.23;;;;;;;17.49;64.75;101994.25;5015495;28;20112;-76
2022/05/26 10:30:22;;;;;;;14.40;9.23;;;;;;;17.63;65.03;101983.00;5014178;28;20037;-76
2022/05/26 10:33:10;;;;;;;11.23;8.50;;;;;;;17.67;63.15;101989.66;5015550;28;20030;-76
2022/05/26 10:35:55;;;;;;;14.02;8.13;;;;;;;17.89;62.60;101992.56;5014023;28;20037;-75
2022/05/26 10:38:45;;;;;;;10.85;8.73;;;;;;;17.94;61.97;101980.88;5023696;28;20061;-76
2022/05/26 10:41:18;;;;;;;16.17;9.32;;;;;;;18.09;63.27;101985.78;5033455;28;20044;-76
2022/05/26 10:43:53;;;;;;;12.35;8.15;;;;;;;18.14;61.81;101988.63;5033375;28;20038;-76
2022/05/26 10:46:19;;;;;;;10.27;8.05;;;;;;;18.29;61.94;101980.63;5035044;28;20025;-75
2022/05/26 10:48:49;;;;;;;13.18;7.65;;;;;;;18.38;59.86;101987.34;5033452;28;20037;-76
2022/05/26 10:51:21;;;;;;;14.15;8.45;;;;;;;18.35;59.04;101987.84;5034780;28;20025;-76
2022/05/26 10:54:06;;;;;;;14.00;7.60;;;;;;;18.35;59.05;101989.78;5015960;28;20063;-76
2022/05/26 10:56:54;;;;;;;13.13;7.50;;;;;;;18.41;60.46;101978.63;5017104;28;20037;-76
2022/05/26 10:59:29;;;;;;;12.55;7.28;;;;;;;18.42;58.72;101984.97;5034140;28;20485;-77
2022/05/26 11:02:05;;;;;;;11.02;7.90;;;;;;;18.24;60.26;101984.13;5022741;28;20443;-79
2022/05/26 11:04:43;;;;;;;10.10;6.70;;;;;;;18.20;61.61;101991.19;5016612;28;20037;-76
2022/05/26 11:07:20;;;;;;;11.18;6.13;;;;;;;18.27;61.48;102001.13;5034804;28;20071;-78
2022/05/26 11:09:54;;;;;;;10.18;5.97;;;;;;;18.39;62.59;101999.16;5021877;28;20054;-78
2022/05/26 11:12:29;;;;;;;11.88;5.93;;;;;;;18.59;60.58;101983.03;5014493;28;20076;-76
2022/05/26 11:18:00;;;;;;;15.13;6.97;;;;;;;18.39;58.83;101997.25;5016721;28;20049;-77
2022/05/26 11:20:29;;;;;;;10.18;6.85;;;;;;;18.24;59.00;101984.13;5016634;28;20038;-81
2022/05/26 11:23:02;;;;;;;11.10;7.25;;;;;;;18.13;59.21;101992.41;5014735;28;20034;-82
2022/05/26 11:25:35;;;;;;;12.30;6.82;;;;;;;18.16;60.82;101987.28;5012824;28;20537;-77
2022/05/26 11:28:13;;;;;;;13.13;7.45;;;;;;;18.11;59.02;101989.13;5014280;28;20036;-76
2022/05/26 11:36:32;;;;;;;11.95;7.30;;;;;;;17.98;58.68;101979.28;5033766;28;20048;-78
2022/05/26 11:39:01;;;;;;;12.25;6.95;;;;;;;17.95;59.77;101977.03;5034237;28;20036;-77
2022/05/26 11:41:34;;;;;;;14.55;7.30;;;;;;;17.82;59.18;101986.38;5035907;28;20045;-77
2022/05/26 11:44:10;;;;;;;12.23;6.70;;;;;;;17.76;60.28;101982.72;5035472;28;20033;-77
2022/05/26 11:46:41;;;;;;;12.10;6.57;;;;;;;17.82;60.95;101969.97;5035782;28;20535;-76
2022/05/26 11:49:09;;;;;;;12.77;7.75;;;;;;;17.75;60.05;101980.22;5040122;28;20359;-78
2022/05/26 11:51:39;;;;;;;14.20;7.95;;;;;;;17.74;60.06;101973.94;5026051;28;20057;-76
2022/05/26 11:54:05;;;;;;;12.38;7.35;;;;;;;17.85;59.89;101969.47;5042496;28;20036;-76
2022/05/26 11:56:33;;;;;;;12.98;7.82;;;;;;;18.03;60.20;101965.69;5022364;28;20029;-77
2022/05/26 11:59:20;;;;;;;14.77;8.15;;;;;;;18.14;59.32;101963.97;5043301;28;20033;-76
2022/05/26 12:01:47;;;;;;;11.55;8.07;;;;;;;18.18;58.74;101956.91;5032931;28;20053;-76
2022/05/26 12:04:32;;;;;;;12.38;7.95;;;;;;;18.23;58.99;101959.72;5046232;28;20059;-77
2022/05/26 12:07:03;;;;;;;9.70;6.63;;;;;;;18.51;61.21;101961.53;5028024;28;20030;-79
2022/05/26 12:09:48;;;;;;;14.67;5.80;;;;;;;18.74;59.78;101960.47;5013068;28;20054;-76
2022/05/26 12:12:16;;;;;;;14.00;6.15;;;;;;;18.78;57.96;101944.34;5016498;28;20115;-76
2022/05/26 12:15:04;;;;;;;15.55;5.20;;;;;;;18.82;57.01;101955.66;5040779;28;20104;-76